Portada
METAR-TAF:

METAR-TAF

Aeropuertos :

Palmer, Alaska, Estados Unidos

latitud: 61-36N, longitud: 149-05W, altitud: 74 m

Observación

El informe se hizo hace 36 minutos, a las 18:53 UTC
Viento 4 kt del sur-suroeste
Temperatura 2°C
Humedad 47%
Presión 1021 hPa
Visibilidad: 16.1 km
Cielo despejado

METAR: PAAQ 141853Z 21004KT 10SM CLR 02/M08 A3016 RMK AO2 SLP218 T00221083

Hora: 11:29 (19:29 UTC)

Pronóstico

El informe se hizo hace 2 horas y 7 minutos, a las 17:22 UTC
Pronóstico válido del 14 a las 18 UTC al 15 a las 18 UTC
Viento 4 kt con dirección variable
Visibilidad: 10 km
Nubes dispersas a una altura de 6000 ft

TAF: PAAQ 141722Z 1418/1518 VRB04KT P6SM SCT060

Observaciones y pronósticos meteorológicos de más de 4000 aeropuertos (mensajes METAR y TAF).

Los puntos amarillos y rojos representan las estaciones disponibles.

Ponga el ratón en el punto deseado para ver el nombre de la estación.

Haga clic para ver las observaciones y los pronósticos meteorológicos.

Para cambiar el mapa : haga clic en los botones verdes con una cruz de color negro para hacer un zoom, en el botón verde con un guión para alejar o en las flechas verdes para mapas adyacentes.


METAR-TAF: